Time;durP1;ratioP1;P1;durP2;ratioP2;P2;SDS_P1;SDS_P2;PMS_P1;PMS_P2;Temp;Humidity;BMP_temperature;BMP_pressure;BME280_temperature;BME280_humidity;BME280_pressure;Samples;Min_cycle;Max_cycle;Signal;HPM_P1;HPM_P2
2023/01/12 00:02:14;;;;;;;32.05;5.47;;;7.50;99.90;;;;;;5097187;28;20040;-48
2023/01/12 00:04:40;;;;;;;30.75;6.03;;;7.60;99.90;;;;;;5097317;28;20431;-48
2023/01/12 00:07:08;;;;;;;28.58;5.75;;;7.70;99.90;;;;;;5096530;28;20207;-46
2023/01/12 00:09:34;;;;;;;30.10;5.03;;;7.70;99.90;;;;;;5096867;28;20044;-46
2023/01/12 00:12:03;;;;;;;32.45;5.75;;;7.70;99.90;;;;;;5097025;28;20039;-50
2023/01/12 00:14:29;;;;;;;32.88;7.18;;;7.70;99.90;;;;;;5097659;28;20059;-47
2023/01/12 00:16:55;;;;;;;34.38;5.32;;;7.70;99.90;;;;;;5078230;28;20386;-48
2023/01/12 00:19:22;;;;;;;22.38;5.45;;;7.70;99.90;;;;;;5096900;28;20351;-47
2023/01/12 00:22:01;;;;;;;31.85;5.68;;;7.70;99.90;;;;;;5096921;28;20307;-49
2023/01/12 00:24:26;;;;;;;23.98;4.97;;;7.80;99.90;;;;;;5084833;28;20039;-47
2023/01/12 00:26:53;;;;;;;17.50;5.30;;;7.70;99.90;;;;;;5097075;28;20047;-47
2023/01/12 00:29:20;;;;;;;16.42;3.97;;;7.70;99.90;;;;;;5078440;28;20057;-49
2023/01/12 00:31:46;;;;;;;17.30;3.30;;;7.70;99.90;;;;;;5096636;28;20498;-50
2023/01/12 00:34:12;;;;;;;20.45;4.30;;;7.60;99.90;;;;;;5097034;28;20072;-47
2023/01/12 00:36:38;;;;;;;20.90;4.03;;;7.60;99.90;;;;;;5095631;28;20052;-48
2023/01/12 00:39:04;;;;;;;22.60;5.10;;;7.60;99.90;;;;;;5095874;28;20043;-47
2023/01/12 00:46:58;;;;;;;34.75;6.15;;;7.50;99.90;;;;;;5083046;28;20043;-48
2023/01/12 00:49:24;;;;;;;30.88;5.90;;;7.70;99.90;;;;;;5094942;28;20043;-50
2023/01/12 00:51:50;;;;;;;24.15;5.22;;;7.70;99.90;;;;;;5095938;28;20039;-48
2023/01/12 00:54:15;;;;;;;25.45;5.65;;;7.70;99.90;;;;;;5097136;28;20054;-47
2023/01/12 00:56:41;;;;;;;25.35;5.40;;;7.80;99.90;;;;;;5077669;28;20043;-47
2023/01/12 00:59:07;;;;;;;25.98;5.00;;;7.70;99.90;;;;;;5095005;28;20093;-48
2023/01/12 01:01:33;;;;;;;22.63;4.43;;;7.80;99.90;;;;;;5096037;28;20046;-48
2023/01/12 01:03:59;;;;;;;23.20;5.32;;;7.70;99.90;;;;;;5077146;28;20048;-47
2023/01/12 01:06:25;;;;;;;23.00;4.65;;;7.80;99.90;;;;;;5077614;28;20049;-48
2023/01/12 01:08:51;;;;;;;36.13;6.32;;;7.80;99.90;;;;;;5095981;28;20043;-48
2023/01/12 01:11:20;;;;;;;25.30;4.63;;;7.80;99.90;;;;;;5095813;28;20050;-48
2023/01/12 01:13:47;;;;;;;31.45;6.28;;;7.80;99.90;;;;;;5095850;28;20327;-47
2023/01/12 01:16:15;;;;;;;27.60;5.55;;;7.80;99.90;;;;;;5077167;28;20039;-47
2023/01/12 01:18:41;;;;;;;32.83;6.25;;;7.80;99.90;;;;;;5095584;28;20039;-47
2023/01/12 01:21:09;;;;;;;21.52;5.07;;;7.80;99.90;;;;;;5095657;28;20093;-47
2023/01/12 01:23:36;;;;;;;27.45;5.13;;;7.80;99.90;;;;;;5095671;28;20135;-46
2023/01/12 01:26:08;;;;;;;29.27;6.85;;;7.80;99.90;;;;;;5095342;28;20093;-47
2023/01/12 01:28:35;;;;;;;29.75;5.97;;;7.90;99.90;;;;;;5095030;28;20043;-47
2023/01/12 01:31:04;;;;;;;25.02;6.15;;;8.00;99.90;;;;;;5095177;28;20048;-47
2023/01/12 01:33:30;;;;;;;27.48;6.15;;;8.00;99.90;;;;;;5095691;28;20176;-48
2023/01/12 01:35:56;;;;;;;29.08;5.88;;;8.00;99.90;;;;;;5095201;28;20047;-47
2023/01/12 01:38:22;;;;;;;39.33;5.78;;;7.90;99.90;;;;;;5095596;28;20370;-48
2023/01/12 01:40:48;;;;;;;38.55;5.35;;;8.00;99.90;;;;;;5095170;28;20158;-48
2023/01/12 01:43:15;;;;;;;30.15;6.65;;;7.90;99.90;;;;;;5095999;28;20039;-48
2023/01/12 01:45:44;;;;;;;29.83;4.90;;;7.90;99.90;;;;;;5095262;28;20550;-47
2023/01/12 01:48:13;;;;;;;27.77;5.00;;;7.80;99.90;;;;;;5095666;28;20409;-46
2023/01/12 01:50:42;;;;;;;28.83;5.70;;;7.90;99.90;;;;;;5095071;28;20035;-47
2023/01/12 01:53:13;;;;;;;27.65;6.85;;;7.90;99.90;;;;;;5059796;28;20054;-47
2023/01/12 01:55:48;;;;;;;35.35;6.30;;;7.90;99.90;;;;;;5095011;28;20047;-47
2023/01/12 01:58:20;;;;;;;22.90;5.22;;;8.00;99.90;;;;;;5095225;28;20047;-48
2023/01/12 02:00:46;;;;;;;36.30;7.30;;;7.90;99.90;;;;;;5095039;28;20913;-47
2023/01/12 02:03:13;;;;;;;27.75;5.22;;;7.90;99.90;;;;;;5077484;28;20181;-47
2023/01/12 02:05:43;;;;;;;36.28;6.07;;;8.00;99.90;;;;;;5094752;28;20394;-47
2023/01/12 02:08:41;;;;;;;24.67;5.75;;;8.00;99.90;;;;;;5094754;28;20136;-47
2023/01/12 02:16:19;;;;;;;39.50;6.13;;;8.00;99.90;;;;;;5093061;28;20661;-47
2023/01/12 02:16:45;;;;;;;36.72;6.10;;;8.00;99.90;;;;;;5094106;28;20061;-47
2023/01/12 02:19:19;;;;;;;30.27;6.43;;;7.90;99.90;;;;;;5093770;28;20051;-47
2023/01/12 02:22:12;;;;;;;28.67;6.43;;;8.00;99.90;;;;;;5095505;28;20473;-47
2023/01/12 02:24:59;;;;;;;36.17;7.70;;;8.00;99.90;;;;;;5094924;28;20055;-47
2023/01/12 02:27:39;;;;;;;30.02;7.15;;;8.10;99.90;;;;;;5094057;28;20054;-47
2023/01/12 02:30:38;;;;;;;36.45;6.93;;;8.10;99.90;;;;;;5093969;28;20047;-47
2023/01/12 02:33:07;;;;;;;29.88;6.38;;;8.10;99.90;;;;;;5094090;28;20580;-46
2023/01/12 02:35:44;;;;;;;42.13;7.65;;;7.90;99.90;;;;;;5094013;28;20044;-50
2023/01/12 02:38:13;;;;;;;34.97;6.22;;;8.10;99.90;;;;;;5094611;28;20052;-49
2023/01/12 02:40:45;;;;;;;39.03;6.03;;;8.10;99.90;;;;;;5093941;28;20249;-47
2023/01/12 02:43:11;;;;;;;26.60;5.93;;;8.00;99.90;;;;;;5094205;28;20039;-46
2023/01/12 02:45:56;;;;;;;32.58;6.07;;;8.00;99.90;;;;;;5094081;28;20086;-46
2023/01/12 02:48:35;;;;;;;45.05;7.28;;;8.10;99.90;;;;;;5094928;28;20039;-46
2023/01/12 02:51:19;;;;;;;38.40;6.10;;;8.10;99.90;;;;;;5094021;28;20032;-47
2023/01/12 02:53:59;;;;;;;37.65;7.55;;;8.20;99.90;;;;;;5077772;28;20442;-48
2023/01/12 02:56:48;;;;;;;37.25;7.57;;;8.00;99.90;;;;;;5095199;28;20044;-47
2023/01/12 02:59:30;;;;;;;34.03;6.85;;;8.20;99.90;;;;;;5076821;28;20050;-51
2023/01/12 03:02:01;;;;;;;37.97;6.30;;;8.30;99.90;;;;;;5088918;28;20086;-48
2023/01/12 03:04:29;;;;;;;31.50;6.15;;;8.20;99.90;;;;;;5093425;28;20079;-47
2023/01/12 03:06:57;;;;;;;35.05;7.35;;;8.30;99.90;;;;;;5093022;28;20146;-49
2023/01/12 03:09:32;;;;;;;32.58;6.88;;;8.30;99.90;;;;;;5094663;28;20048;-48
2023/01/12 03:12:07;;;;;;;34.72;6.57;;;8.20;99.90;;;;;;5076345;28;20123;-47
2023/01/12 03:14:36;;;;;;;38.40;7.30;;;8.40;99.90;;;;;;5094057;28;20093;-49
2023/01/12 03:17:10;;;;;;;34.17;7.50;;;8.20;99.90;;;;;;5092969;28;20512;-48
2023/01/12 03:19:39;;;;;;;35.95;7.50;;;8.30;99.90;;;;;;5075094;28;20509;-46
2023/01/12 03:22:11;;;;;;;36.65;7.50;;;8.50;99.90;;;;;;5096003;28;20048;-47
2023/01/12 03:24:42;;;;;;;45.25;8.05;;;8.40;99.90;;;;;;5098395;28;20052;-47
2023/01/12 03:27:19;;;;;;;43.10;7.88;;;8.50;99.90;;;;;;5079046;28;20054;-48
2023/01/12 03:29:55;;;;;;;37.88;6.85;;;8.50;99.90;;;;;;5062559;28;20074;-47
2023/01/12 03:32:22;;;;;;;39.03;7.30;;;8.40;99.90;;;;;;5079628;28;20051;-48
2023/01/12 03:34:48;;;;;;;38.83;8.32;;;8.40;99.90;;;;;;5098422;28;20044;-49
2023/01/12 03:37:30;;;;;;;35.15;7.10;;;8.30;99.90;;;;;;5098181;28;20101;-47
2023/01/12 03:40:26;;;;;;;35.75;6.68;;;8.50;99.90;;;;;;5097213;28;20134;-47
2023/01/12 03:42:58;;;;;;;37.03;6.35;;;8.30;99.90;;;;;;5096346;28;20055;-47
2023/01/12 03:45:42;;;;;;;29.63;6.55;;;8.30;99.90;;;;;;5079977;28;20072;-47
2023/01/12 03:48:37;;;;;;;30.45;5.90;;;8.50;99.90;;;;;;5097184;28;20776;-48
2023/01/12 03:51:24;;;;;;;31.27;6.30;;;8.50;99.90;;;;;;5096552;28;20070;-47
2023/01/12 03:53:52;;;;;;;32.92;5.55;;;8.40;99.90;;;;;;5097451;28;20111;-47
2023/01/12 03:56:19;;;;;;;36.50;6.85;;;8.30;99.90;;;;;;5096793;28;20050;-46
2023/01/12 03:58:47;;;;;;;35.97;6.72;;;8.50;99.90;;;;;;5097779;28;20043;-46
2023/01/12 04:01:13;;;;;;;30.13;6.60;;;8.60;99.90;;;;;;5096844;28;20048;-47
2023/01/12 04:03:38;;;;;;;30.13;6.53;;;8.40;99.90;;;;;;5098069;28;20050;-47
2023/01/12 04:06:04;;;;;;;29.75;6.45;;;8.40;99.90;;;;;;5096774;28;20043;-47
2023/01/12 04:08:30;;;;;;;27.35;5.30;;;8.60;99.90;;;;;;5097057;28;20062;-47
2023/01/12 04:10:56;;;;;;;18.58;5.43;;;8.40;99.90;;;;;;5096694;28;20118;-47
2023/01/12 04:13:21;;;;;;;28.98;5.13;;;8.50;99.90;;;;;;5097512;28;20036;-46
2023/01/12 04:15:47;;;;;;;14.50;4.88;;;8.40;99.90;;;;;;5077957;28;20494;-47
2023/01/12 04:18:13;;;;;;;23.58;3.85;;;8.30;99.90;;;;;;5097591;28;20364;-47
2023/01/12 04:20:39;;;;;;;20.63;4.13;;;8.30;99.90;;;;;;5077808;28;20465;-48
2023/01/12 04:23:08;;;;;;;16.65;4.15;;;8.30;99.90;;;;;;5096923;28;20123;-46
2023/01/12 04:25:34;;;;;;;22.02;3.92;;;8.30;99.90;;;;;;5096814;28;20406;-48
2023/01/12 04:28:01;;;;;;;19.15;4.15;;;8.30;99.90;;;;;;5097050;28;20074;-49
2023/01/12 04:30:31;;;;;;;21.27;3.92;;;8.20;99.90;;;;;;5078133;28;20043;-48
2023/01/12 04:32:58;;;;;;;22.23;4.38;;;8.30;99.90;;;;;;5096559;28;20056;-48
2023/01/12 04:35:25;;;;;;;17.95;4.20;;;8.20;99.90;;;;;;5096378;28;20123;-47
2023/01/12 04:37:51;;;;;;;20.33;3.58;;;8.30;99.90;;;;;;5096922;28;20058;-48
2023/01/12 04:40:18;;;;;;;16.35;4.18;;;8.30;99.90;;;;;;5095826;28;20050;-47
2023/01/12 04:43:03;;;;;;;20.13;4.32;;;8.20;99.90;;;;;;5096536;28;20407;-50
2023/01/12 04:45:32;;;;;;;18.38;4.55;;;8.20;99.90;;;;;;5077773;28;20512;-48
2023/01/12 04:48:08;;;;;;;19.55;4.22;;;8.20;99.90;;;;;;5096906;28;20043;-48
2023/01/12 04:50:34;;;;;;;12.50;3.10;;;8.20;99.90;;;;;;5095751;28;20043;-47
2023/01/12 04:53:05;;;;;;;18.48;3.47;;;8.10;99.90;;;;;;5096749;28;20040;-48
2023/01/12 04:55:32;;;;;;;15.02;3.05;;;8.00;99.90;;;;;;5096562;28;20083;-49
2023/01/12 04:57:58;;;;;;;12.27;3.15;;;8.20;99.90;;;;;;5096218;28;20047;-48
2023/01/12 05:00:24;;;;;;;15.00;3.28;;;8.00;99.90;;;;;;5096636;28;20554;-47
2023/01/12 05:02:54;;;;;;;13.20;3.42;;;8.00;99.90;;;;;;5077732;28;20043;-48
2023/01/12 05:05:19;;;;;;;13.38;3.28;;;8.10;99.90;;;;;;5094450;28;20499;-49
2023/01/12 05:10:29;;;;;;;12.40;3.08;;;8.20;99.90;;;;;;5095432;28;20127;-47
2023/01/12 05:12:56;;;;;;;9.48;2.65;;;8.20;99.90;;;;;;5078192;28;20043;-49
2023/01/12 05:15:22;;;;;;;7.72;3.00;;;8.10;99.90;;;;;;5095508;28;20458;-47
2023/01/12 05:17:47;;;;;;;6.65;2.83;;;8.10;99.90;;;;;;5096352;28;20052;-48
2023/01/12 05:20:13;;;;;;;11.23;4.00;;;8.10;99.90;;;;;;5095458;28;20083;-47
2023/01/12 05:22:39;;;;;;;13.93;4.40;;;8.10;99.90;;;;;;5095961;28;20422;-48
2023/01/12 05:25:05;;;;;;;9.40;3.80;;;8.00;99.90;;;;;;5095842;28;20059;-48
2023/01/12 05:27:31;;;;;;;8.38;3.65;;;8.00;99.90;;;;;;5095461;28;20056;-47
2023/01/12 05:29:58;;;;;;;8.63;3.45;;;8.00;99.90;;;;;;5095920;28;20470;-47
2023/01/12 05:32:24;;;;;;;9.45;3.70;;;8.00;99.90;;;;;;5083022;28;20615;-50
2023/01/12 05:34:50;;;;;;;10.00;3.80;;;8.00;99.90;;;;;;5095933;28;20207;-46
2023/01/12 05:37:16;;;;;;;11.05;4.65;;;8.00;99.90;;;;;;5095914;28;20055;-48
2023/01/12 05:39:42;;;;;;;11.38;3.95;;;8.10;99.90;;;;;;5095151;28;20126;-47
2023/01/12 05:44:51;;;;;;;7.20;3.60;;;8.10;99.90;;;;;;5095447;28;20736;-47
2023/01/12 05:47:17;;;;;;;9.95;3.80;;;8.10;99.90;;;;;;5077522;28;20040;-46
2023/01/12 05:49:43;;;;;;;8.38;3.60;;;8.30;99.90;;;;;;5059867;28;20072;-48
2023/01/12 05:52:08;;;;;;;10.90;3.88;;;8.20;99.90;;;;;;5095145;28;20139;-48
2023/01/12 05:54:34;;;;;;;8.70;2.83;;;8.10;99.90;;;;;;5094878;28;20461;-49
2023/01/12 05:57:00;;;;;;;10.23;3.00;;;8.20;99.90;;;;;;5076967;28;20055;-47
2023/01/12 05:59:25;;;;;;;6.28;2.70;;;8.10;99.90;;;;;;5094599;28;20120;-49
2023/01/12 06:01:51;;;;;;;7.40;2.63;;;8.20;99.90;;;;;;5076454;28;20546;-48
2023/01/12 06:04:17;;;;;;;4.90;2.00;;;8.40;99.90;;;;;;5076847;28;20059;-48
2023/01/12 06:06:42;;;;;;;5.35;1.85;;;8.40;99.90;;;;;;5094799;28;20043;-47
2023/01/12 06:09:08;;;;;;;2.47;1.52;;;8.30;99.90;;;;;;5094268;28;20413;-48
2023/01/12 06:14:18;;;;;;;4.47;2.20;;;8.30;99.90;;;;;;5094867;28;20610;-50
2023/01/12 06:16:44;;;;;;;4.50;2.15;;;8.40;99.90;;;;;;5094364;28;20035;-48
2023/01/12 06:19:10;;;;;;;5.07;2.60;;;8.40;99.90;;;;;;5094041;28;20058;-49
2023/01/12 06:21:37;;;;;;;4.93;2.35;;;8.60;99.90;;;;;;5094573;28;20804;-51
2023/01/12 06:24:03;;;;;;;6.57;2.83;;;8.40;99.90;;;;;;5095212;28;20044;-49
2023/01/12 06:26:29;;;;;;;9.32;2.75;;;8.70;99.90;;;;;;5077505;28;20083;-50
2023/01/12 06:28:55;;;;;;;8.57;2.60;;;8.70;99.90;;;;;;5076725;28;20040;-47
2023/01/12 06:31:21;;;;;;;7.40;3.10;;;8.50;99.90;;;;;;5076116;28;20051;-47
2023/01/12 06:33:46;;;;;;;6.40;3.10;;;8.70;99.90;;;;;;5095620;28;20063;-51
2023/01/12 06:36:12;;;;;;;9.95;2.90;;;8.80;99.90;;;;;;5094880;28;20054;-48
2023/01/12 06:38:38;;;;;;;7.43;3.05;;;8.60;99.90;;;;;;5075877;28;20429;-47
2023/01/12 06:41:05;;;;;;;10.43;3.15;;;8.80;99.90;;;;;;5094438;28;20214;-46
2023/01/12 06:43:31;;;;;;;14.95;3.85;;;8.70;99.90;;;;;;5094256;28;20112;-49
2023/01/12 06:45:57;;;;;;;9.88;4.22;;;8.80;99.90;;;;;;5075698;28;20048;-49
2023/01/12 06:48:24;;;;;;;13.45;3.97;;;9.00;99.90;;;;;;5094497;28;20049;-47
2023/01/12 06:50:58;;;;;;;18.85;4.88;;;8.80;99.90;;;;;;5094039;28;20435;-47
2023/01/12 06:53:24;;;;;;;18.45;4.80;;;9.10;99.90;;;;;;5094892;28;20502;-49
2023/01/12 06:55:50;;;;;;;21.10;4.95;;;8.90;99.90;;;;;;5094187;28;20044;-51
2023/01/12 06:58:16;;;;;;;22.27;5.47;;;9.00;99.90;;;;;;5099275;28;20044;-48
2023/01/12 07:00:42;;;;;;;23.58;5.80;;;9.00;99.90;;;;;;5098133;28;20044;-47
2023/01/12 07:03:14;;;;;;;25.38;6.10;;;9.10;99.90;;;;;;5098560;28;20050;-47
2023/01/12 07:05:40;;;;;;;28.58;5.20;;;9.20;99.90;;;;;;5098721;28;20515;-48
2023/01/12 07:08:06;;;;;;;30.20;5.93;;;9.30;99.90;;;;;;5098656;28;20040;-47
2023/01/12 07:10:31;;;;;;;39.20;6.28;;;9.20;99.90;;;;;;5097605;28;20298;-48
2023/01/12 07:12:59;;;;;;;35.38;6.00;;;9.30;99.90;;;;;;5098286;28;20069;-49
2023/01/12 07:15:25;;;;;;;30.75;6.65;;;9.30;99.90;;;;;;5097942;28;20044;-48
2023/01/12 07:17:55;;;;;;;36.22;6.30;;;9.20;99.90;;;;;;5098026;28;20055;-49
2023/01/12 07:20:20;;;;;;;33.60;6.40;;;9.50;99.90;;;;;;5097186;28;20062;-48
2023/01/12 07:22:46;;;;;;;37.13;6.80;;;9.50;99.90;;;;;;5098557;28;20068;-48
2023/01/12 07:25:11;;;;;;;40.95;6.97;;;9.30;99.90;;;;;;5097491;28;20131;-49
2023/01/12 07:27:37;;;;;;;42.53;7.57;;;9.50;99.90;;;;;;5098716;28;20076;-48
2023/01/12 07:30:03;;;;;;;42.05;8.00;;;9.50;99.90;;;;;;5096199;28;20047;-48
2023/01/12 07:32:29;;;;;;;33.65;7.80;;;9.40;99.90;;;;;;5097009;28;20042;-48
2023/01/12 07:34:55;;;;;;;41.50;6.93;;;9.40;99.90;;;;;;5097691;28;20043;-47
2023/01/12 07:37:20;;;;;;;49.55;8.10;;;9.40;99.90;;;;;;5079281;28;20371;-51
2023/01/12 07:39:46;;;;;;;40.47;6.95;;;9.70;99.90;;;;;;5097822;28;20086;-47
2023/01/12 07:42:24;;;;;;;43.05;6.95;;;9.70;99.90;;;;;;5097698;28;20389;-48
2023/01/12 07:44:50;;;;;;;49.08;8.38;;;9.70;99.90;;;;;;5097116;28;20159;-48
2023/01/12 07:47:15;;;;;;;38.95;6.60;;;9.60;99.90;;;;;;5097299;28;20116;-49
2023/01/12 07:49:41;;;;;;;42.17;8.55;;;9.60;99.90;;;;;;5096538;28;20417;-48
2023/01/12 07:52:10;;;;;;;41.00;6.80;;;9.70;99.90;;;;;;5096858;28;20639;-47
2023/01/12 07:54:36;;;;;;;43.95;7.88;;;9.70;99.90;;;;;;5096792;28;20437;-48
2023/01/12 07:57:02;;;;;;;37.28;6.63;;;9.80;99.90;;;;;;5096382;28;20063;-49
2023/01/12 07:59:28;;;;;;;45.63;7.75;;;9.80;99.90;;;;;;5095965;28;20097;-47
2023/01/12 08:01:54;;;;;;;37.95;7.75;;;9.80;99.90;;;;;;5082469;28;20032;-48
2023/01/12 08:04:21;;;;;;;35.35;7.38;;;9.60;99.90;;;;;;5077746;28;20051;-48
2023/01/12 08:06:47;;;;;;;42.58;6.78;;;9.70;99.90;;;;;;5079315;28;20047;-47
2023/01/12 08:09:12;;;;;;;33.97;7.53;;;9.90;99.90;;;;;;5078240;28;20456;-48
2023/01/12 08:11:38;;;;;;;34.45;6.10;;;9.80;99.90;;;;;;5080112;28;20036;-47
2023/01/12 08:14:04;;;;;;;35.80;6.93;;;9.70;99.90;;;;;;5080162;28;20119;-49
2023/01/12 08:16:42;;;;;;;26.88;8.02;;;9.80;99.90;;;;;;5074293;28;20135;-48
2023/01/12 08:19:15;;;;;;;41.55;6.63;;;9.70;99.90;;;;;;5077201;28;20539;-46
2023/01/12 08:21:46;;;;;;;35.78;6.35;;;10.00;99.90;;;;;;5077637;28;20160;-47
2023/01/12 08:24:19;;;;;;;35.10;6.63;;;9.70;99.90;;;;;;5084149;28;20588;-49
2023/01/12 08:26:47;;;;;;;38.97;6.00;;;9.90;99.90;;;;;;5088197;28;20586;-47
2023/01/12 08:29:40;;;;;;;30.67;5.93;;;9.90;99.90;;;;;;5084982;28;20039;-48
2023/01/12 08:32:08;;;;;;;33.60;6.00;;;9.80;99.90;;;;;;4991567;28;20367;-48
2023/01/12 08:34:35;;;;;;;36.08;7.35;;;10.10;99.90;;;;;;4992907;28;20094;-47
2023/01/12 08:37:04;;;;;;;34.72;6.20;;;9.80;99.90;;;;;;4992086;28;20066;-46
2023/01/12 08:39:30;;;;;;;36.42;6.20;;;9.80;99.90;;;;;;4976570;28;20042;-47
2023/01/12 08:41:56;;;;;;;33.78;6.03;;;10.00;99.90;;;;;;4992689;28;20108;-52
2023/01/12 08:44:22;;;;;;;36.38;6.10;;;10.00;99.90;;;;;;4977043;28;20060;-49
2023/01/12 08:46:52;;;;;;;30.40;6.60;;;9.80;99.90;;;;;;4992314;28;20061;-51
2023/01/12 08:49:23;;;;;;;31.70;6.55;;;9.80;99.90;;;;;;4992465;28;20065;-49
2023/01/12 08:51:49;;;;;;;26.35;5.18;;;10.00;99.90;;;;;;4976898;28;20076;-47
2023/01/12 08:54:16;;;;;;;29.70;6.32;;;9.80;99.90;;;;;;4993180;28;20046;-50
2023/01/12 08:56:42;;;;;;;36.45;7.88;;;10.00;99.90;;;;;;4991999;28;20057;-47
2023/01/12 08:59:08;;;;;;;27.77;5.93;;;10.00;99.90;;;;;;4979077;28;20460;-47
2023/01/12 09:01:34;;;;;;;33.13;6.07;;;10.10;99.90;;;;;;4992667;28;20042;-48
2023/01/12 09:04:00;;;;;;;33.42;5.45;;;10.00;99.90;;;;;;4992801;28;20061;-49
2023/01/12 09:06:33;;;;;;;32.05;5.80;;;10.10;99.90;;;;;;4992573;28;20489;-47
2023/01/12 09:09:00;;;;;;;27.48;5.07;;;10.00;99.90;;;;;;5037482;28;20629;-47
2023/01/12 09:11:28;;;;;;;35.80;6.47;;;10.20;99.90;;;;;;5095950;28;20482;-47
2023/01/12 09:13:55;;;;;;;31.67;6.53;;;10.20;99.90;;;;;;5095467;28;20072;-48
2023/01/12 09:16:21;;;;;;;33.03;5.60;;;10.20;99.90;;;;;;5075692;28;20466;-50
2023/01/12 09:18:47;;;;;;;28.73;6.15;;;10.20;99.90;;;;;;5093392;28;20103;-49
2023/01/12 09:21:20;;;;;;;37.67;6.95;;;10.10;99.90;;;;;;5094950;28;20043;-48
2023/01/12 09:23:48;;;;;;;22.85;5.53;;;10.00;99.90;;;;;;5095203;28;20786;-51
2023/01/12 09:26:17;;;;;;;31.90;6.63;;;10.30;99.90;;;;;;5076965;28;20222;-48
2023/01/12 09:28:44;;;;;;;31.67;6.15;;;10.20;99.90;;;;;;5095140;28;20039;-47
2023/01/12 09:31:15;;;;;;;26.88;5.43;;;10.40;99.90;;;;;;5095435;28;20071;-47
2023/01/12 09:33:42;;;;;;;26.27;5.97;;;10.40;99.90;;;;;;5076617;28;20113;-48
2023/01/12 09:36:23;;;;;;;33.78;5.70;;;10.40;99.90;;;;;;5076152;28;20035;-47
2023/01/12 09:38:49;;;;;;;36.50;6.00;;;10.40;99.90;;;;;;5094886;28;20059;-48
2023/01/12 09:47:39;;;;;;;25.48;5.75;;;10.40;99.90;;;;;;5094764;28;20059;-48
2023/01/12 09:50:10;;;;;;;23.10;4.53;;;10.30;99.90;;;;;;5094238;28;20429;-47
2023/01/12 09:52:38;;;;;;;22.55;4.93;;;10.50;99.90;;;;;;5094830;28;20500;-49
2023/01/12 09:55:08;;;;;;;24.70;6.15;;;10.40;99.90;;;;;;5094928;28;20040;-49
2023/01/12 09:57:58;;;;;;;26.13;4.80;;;10.60;99.90;;;;;;5094392;28;20434;-49
2023/01/12 10:00:27;;;;;;;27.48;5.57;;;10.40;99.90;;;;;;5075700;28;20518;-48
2023/01/12 10:03:10;;;;;;;28.65;4.95;;;10.40;99.90;;;;;;5094857;28;20044;-49
2023/01/12 10:05:51;;;;;;;27.38;4.85;;;10.50;99.90;;;;;;5093818;28;20268;-49
2023/01/12 10:08:40;;;;;;;22.52;4.30;;;10.50;99.90;;;;;;5093938;28;20047;-47
2023/01/12 10:11:24;;;;;;;23.15;5.00;;;10.70;99.90;;;;;;5094113;28;20083;-48
2023/01/12 10:14:21;;;;;;;19.73;4.35;;;10.60;99.90;;;;;;5094857;28;20039;-48
2023/01/12 10:16:59;;;;;;;25.38;4.25;;;10.70;99.90;;;;;;5094293;28;20804;-50
2023/01/12 10:19:37;;;;;;;29.27;5.43;;;10.80;99.90;;;;;;5094594;28;20394;-47
2023/01/12 10:22:36;;;;;;;23.73;4.95;;;10.70;99.90;;;;;;5095267;28;20041;-47
2023/01/12 10:25:21;;;;;;;24.30;4.45;;;10.70;99.90;;;;;;5095241;28;20035;-48
2023/01/12 10:27:50;;;;;;;20.92;4.30;;;10.70;99.90;;;;;;5094983;28;20063;-49
2023/01/12 10:30:23;;;;;;;26.67;5.05;;;10.80;99.90;;;;;;5094711;28;20127;-49
2023/01/12 10:32:49;;;;;;;25.70;4.32;;;10.70;99.90;;;;;;5098484;28;20063;-49
2023/01/12 10:35:17;;;;;;;22.30;4.63;;;10.70;99.90;;;;;;5098073;28;20103;-47
2023/01/12 10:37:45;;;;;;;19.90;4.60;;;10.70;99.90;;;;;;5099136;28;20936;-48
2023/01/12 10:40:25;;;;;;;23.15;4.68;;;10.60;99.90;;;;;;5097619;28;20134;-51
2023/01/12 10:43:21;;;;;;;26.20;4.50;;;10.70;99.90;;;;;;5099148;28;20080;-49
2023/01/12 10:46:14;;;;;;;24.45;4.95;;;10.80;99.90;;;;;;5098678;28;20062;-51
2023/01/12 10:48:50;;;;;;;24.37;5.97;;;10.80;99.90;;;;;;5098261;28;20059;-48
2023/01/12 10:51:25;;;;;;;31.80;5.85;;;10.90;99.90;;;;;;5098564;28;20143;-50
2023/01/12 10:53:59;;;;;;;19.25;4.95;;;10.80;99.90;;;;;;5099034;28;20055;-51
2023/01/12 10:56:41;;;;;;;21.00;4.40;;;10.90;99.90;;;;;;5098852;28;20051;-47
2023/01/12 10:59:13;;;;;;;28.48;4.78;;;10.80;99.90;;;;;;5080053;28;20047;-50
2023/01/12 11:01:42;;;;;;;31.70;5.30;;;10.90;99.90;;;;;;5098822;28;20422;-49
2023/01/12 11:04:12;;;;;;;27.60;5.72;;;10.80;99.90;;;;;;5098731;28;20048;-48
2023/01/12 11:06:42;;;;;;;26.10;4.95;;;10.80;99.90;;;;;;5079936;28;20650;-51
2023/01/12 11:09:25;;;;;;;25.75;6.03;;;10.90;99.90;;;;;;5098387;28;20051;-47
2023/01/12 11:12:00;;;;;;;27.17;5.22;;;11.00;99.90;;;;;;5099381;28;20134;-48
2023/01/12 11:14:33;;;;;;;23.15;4.88;;;11.00;99.90;;;;;;5081437;28;20055;-50
2023/01/12 11:17:13;;;;;;;26.20;4.43;;;11.10;99.90;;;;;;5098064;28;20114;-48
2023/01/12 11:19:41;;;;;;;24.95;4.60;;;11.10;99.90;;;;;;5098260;28;20050;-50
2023/01/12 11:22:27;;;;;;;22.23;4.40;;;11.10;99.90;;;;;;5098041;28;20528;-49
2023/01/12 11:25:12;;;;;;;24.75;5.85;;;11.10;99.90;;;;;;5079382;28;20051;-50
2023/01/12 11:27:46;;;;;;;22.08;3.97;;;11.10;99.90;;;;;;5098973;28;20402;-48
2023/01/12 11:30:20;;;;;;;21.45;4.75;;;11.10;99.90;;;;;;5084013;28;20058;-48
2023/01/12 11:32:58;;;;;;;19.88;4.45;;;11.10;99.90;;;;;;5081237;28;20112;-46
2023/01/12 11:35:49;;;;;;;22.38;5.28;;;11.20;99.90;;;;;;5098276;28;20063;-48
2023/01/12 11:38:32;;;;;;;23.92;4.18;;;11.20;99.90;;;;;;5097384;28;20130;-48
2023/01/12 11:40:58;;;;;;;;;;;11.20;99.90;;;;;;5081039;28;20478;-48
2023/01/12 11:44:11;;;;;;;14.30;3.78;;;11.20;99.90;;;;;;5079642;28;19924;-49
2023/01/12 11:46:45;;;;;;;19.50;4.00;;;11.30;99.90;;;;;;5014512;28;20553;-47
2023/01/12 11:49:20;;;;;;;21.70;4.85;;;11.20;99.90;;;;;;5013582;28;20100;-50
2023/01/12 11:51:55;;;;;;;18.65;4.47;;;11.30;99.90;;;;;;5013754;28;20041;-49
2023/01/12 11:54:22;;;;;;;18.20;3.67;;;11.30;99.90;;;;;;5013890;28;20065;-48
2023/01/12 11:56:59;;;;;;;22.20;4.55;;;11.20;99.90;;;;;;5014353;28;20060;-52
2023/01/12 11:59:43;;;;;;;21.90;4.35;;;11.20;99.90;;;;;;4996256;28;20444;-49
2023/01/12 12:02:11;;;;;;;19.38;4.05;;;11.20;99.90;;;;;;4997456;28;20709;-47
2023/01/12 12:05:10;;;;;;;20.02;4.60;;;11.20;99.90;;;;;;5013396;28;20041;-50
2023/01/12 12:07:47;;;;;;;20.65;5.32;;;11.10;99.90;;;;;;5013674;28;20057;-47
2023/01/12 12:10:21;;;;;;;24.42;5.65;;;11.20;99.90;;;;;;5013416;28;20131;-46
2023/01/12 12:13:17;;;;;;;25.45;5.07;;;11.10;99.90;;;;;;5013846;28;20046;-49
2023/01/12 12:16:10;;;;;;;23.02;5.05;;;11.10;99.90;;;;;;4996803;28;20049;-46
2023/01/12 12:19:12;;;;;;;26.37;5.63;;;11.00;99.90;;;;;;4994012;28;20045;-49
2023/01/12 12:22:00;;;;;;;26.30;5.18;;;11.20;99.90;;;;;;5088322;28;20687;-47
2023/01/12 12:24:32;;;;;;;22.08;4.57;;;11.10;99.90;;;;;;5096266;28;20035;-48
2023/01/12 12:28:02;;;;;;;18.50;3.47;;;11.20;99.90;;;;;;5096842;28;20054;-48
2023/01/12 12:30:56;;;;;;;19.23;3.67;;;11.10;99.90;;;;;;4974560;28;20101;-48
2023/01/12 12:33:55;;;;;;;22.75;3.90;;;11.10;99.90;;;;;;4975899;28;20073;-48
2023/01/12 12:36:29;;;;;;;19.13;3.90;;;11.00;99.90;;;;;;4981705;28;20050;-47
2023/01/12 12:39:13;;;;;;;25.30;5.10;;;11.20;99.90;;;;;;4958784;28;20138;-47
2023/01/12 12:45:24;;;;;;;25.33;4.97;;;11.00;99.90;;;;;;4962528;28;20128;-47
2023/01/12 12:47:59;;;;;;;36.70;6.68;;;11.00;99.90;;;;;;4973567;28;20082;-49
2023/01/12 12:50:46;;;;;;;26.08;5.07;;;11.00;99.90;;;;;;4971945;28;20580;-50
2023/01/12 12:53:19;;;;;;;25.30;5.32;;;11.00;99.90;;;;;;4972881;28;20078;-50
2023/01/12 12:55:45;;;;;;;28.85;5.60;;;11.00;99.90;;;;;;4974237;28;20228;-50
2023/01/12 12:58:20;;;;;;;27.63;5.63;;;10.90;99.90;;;;;;4956104;28;20066;-49
2023/01/12 13:00:49;;;;;;;32.95;6.13;;;11.00;99.90;;;;;;4974692;28;20058;-49
2023/01/12 13:03:39;;;;;;;31.60;6.95;;;11.10;99.90;;;;;;4981045;28;20445;-48
2023/01/12 13:06:26;;;;;;;27.27;6.68;;;10.90;99.90;;;;;;5022111;28;20053;-47
2023/01/12 13:08:56;;;;;;;29.20;5.40;;;11.00;99.90;;;;;;5094322;28;20134;-50
2023/01/12 13:11:56;;;;;;;28.73;6.18;;;11.00;99.90;;;;;;5076887;28;20518;-50
2023/01/12 13:14:38;;;;;;;34.35;5.82;;;11.10;99.90;;;;;;5077323;28;20093;-50
2023/01/12 13:17:19;;;;;;;24.42;5.18;;;10.90;99.90;;;;;;5096110;28;20505;-46
2023/01/12 13:20:07;;;;;;;26.10;6.35;;;10.90;99.90;;;;;;5095326;28;20056;-51
2023/01/12 13:22:43;;;;;;;27.83;5.50;;;10.90;99.90;;;;;;5095301;28;20078;-51
2023/01/12 13:25:15;;;;;;;21.45;5.05;;;10.90;99.90;;;;;;5095021;28;20043;-51
2023/01/12 13:27:59;;;;;;;32.42;6.40;;;10.80;99.90;;;;;;5078265;28;20388;-50
2023/01/12 13:30:27;;;;;;;31.67;7.65;;;10.90;99.90;;;;;;5095809;28;20047;-49
2023/01/12 13:33:28;;;;;;;35.53;6.50;;;10.80;99.90;;;;;;5095117;28;20448;-50
2023/01/12 13:36:07;;;;;;;35.00;6.90;;;10.90;99.90;;;;;;5093385;28;20044;-47
2023/01/12 13:38:38;;;;;;;31.13;6.68;;;10.70;99.90;;;;;;5075668;28;20048;-49